sensor_id;sensor_type;location;lat;lon;timestamp;temperature;humidity
40534;DHT22;26233;51.894;10.192;2024-01-07T00:00:47;3.70;53.00
40534;DHT22;26233;51.894;10.192;2024-01-07T00:03:14;3.70;53.00
40534;DHT22;26233;51.894;10.192;2024-01-07T00:05:43;3.70;52.90
40534;DHT22;26233;51.894;10.192;2024-01-07T00:08:10;3.70;52.90
40534;DHT22;26233;51.894;10.192;2024-01-07T00:10:37;3.70;52.80
40534;DHT22;26233;51.894;10.192;2024-01-07T00:13:04;3.60;52.80
40534;DHT22;26233;51.894;10.192;2024-01-07T00:15:31;3.60;52.80
40534;DHT22;26233;51.894;10.192;2024-01-07T00:17:58;3.60;52.80
40534;DHT22;26233;51.894;10.192;2024-01-07T00:20:25;3.60;52.80
40534;DHT22;26233;51.894;10.192;2024-01-07T00:22:54;3.60;52.90
40534;DHT22;26233;51.894;10.192;2024-01-07T00:25:21;3.60;53.00
40534;DHT22;26233;51.894;10.192;2024-01-07T00:27:49;3.60;53.00
40534;DHT22;26233;51.894;10.192;2024-01-07T00:30:18;3.60;53.00
40534;DHT22;26233;51.894;10.192;2024-01-07T00:32:45;3.60;52.90
40534;DHT22;26233;51.894;10.192;2024-01-07T00:35:12;3.60;53.00
40534;DHT22;26233;51.894;10.192;2024-01-07T00:37:40;3.60;53.00
40534;DHT22;26233;51.894;10.192;2024-01-07T00:40:09;3.60;52.90
40534;DHT22;26233;51.894;10.192;2024-01-07T00:42:37;3.50;52.70
40534;DHT22;26233;51.894;10.192;2024-01-07T00:45:05;3.50;52.70
40534;DHT22;26233;51.894;10.192;2024-01-07T00:47:32;3.50;52.70
40534;DHT22;26233;51.894;10.192;2024-01-07T00:49:59;3.50;52.80
40534;DHT22;26233;51.894;10.192;2024-01-07T00:52:26;3.50;52.90
40534;DHT22;26233;51.894;10.192;2024-01-07T00:54:53;3.50;52.70
40534;DHT22;26233;51.894;10.192;2024-01-07T00:57:22;3.40;52.60
40534;DHT22;26233;51.894;10.192;2024-01-07T00:59:49;3.40;52.70
40534;DHT22;26233;51.894;10.192;2024-01-07T01:02:17;3.30;52.60
40534;DHT22;26233;51.894;10.192;2024-01-07T01:04:43;3.20;52.60
40534;DHT22;26233;51.894;10.192;2024-01-07T01:07:11;3.30;52.80
40534;DHT22;26233;51.894;10.192;2024-01-07T01:09:38;3.30;52.80
40534;DHT22;26233;51.894;10.192;2024-01-07T01:12:05;3.20;52.70
40534;DHT22;26233;51.894;10.192;2024-01-07T01:14:34;3.20;52.60
40534;DHT22;26233;51.894;10.192;2024-01-07T01:17:01;3.20;52.70
40534;DHT22;26233;51.894;10.192;2024-01-07T01:19:28;3.20;52.70
40534;DHT22;26233;51.894;10.192;2024-01-07T01:21:55;3.10;52.70
40534;DHT22;26233;51.894;10.192;2024-01-07T01:24:22;3.10;52.80
40534;DHT22;26233;51.894;10.192;2024-01-07T01:26:49;3.10;52.80
40534;DHT22;26233;51.894;10.192;2024-01-07T01:29:16;3.10;52.80
40534;DHT22;26233;51.894;10.192;2024-01-07T01:31:44;3.10;52.90
40534;DHT22;26233;51.894;10.192;2024-01-07T01:34:11;3.10;52.60
40534;DHT22;26233;51.894;10.192;2024-01-07T01:36:38;3.10;52.60
40534;DHT22;26233;51.894;10.192;2024-01-07T01:39:05;3.10;52.60
40534;DHT22;26233;51.894;10.192;2024-01-07T01:41:33;3.10;52.80
40534;DHT22;26233;51.894;10.192;2024-01-07T01:44:00;3.10;52.60
40534;DHT22;26233;51.894;10.192;2024-01-07T01:46:28;3.10;52.60
40534;DHT22;26233;51.894;10.192;2024-01-07T01:48:58;3.00;52.50
40534;DHT22;26233;51.894;10.192;2024-01-07T01:51:25;3.00;52.40
40534;DHT22;26233;51.894;10.192;2024-01-07T01:53:53;3.00;52.30
40534;DHT22;26233;51.894;10.192;2024-01-07T01:56:24;3.00;52.50
40534;DHT22;26233;51.894;10.192;2024-01-07T01:58:53;2.90;52.40
40534;DHT22;26233;51.894;10.192;2024-01-07T02:01:20;2.90;52.50
40534;DHT22;26233;51.894;10.192;2024-01-07T02:03:48;2.90;52.60
40534;DHT22;26233;51.894;10.192;2024-01-07T02:06:16;2.90;52.50
40534;DHT22;26233;51.894;10.192;2024-01-07T02:08:43;2.90;52.50
40534;DHT22;26233;51.894;10.192;2024-01-07T02:11:17;2.90;52.50
40534;DHT22;26233;51.894;10.192;2024-01-07T02:13:45;2.90;52.40
40534;DHT22;26233;51.894;10.192;2024-01-07T02:16:12;2.90;52.40
40534;DHT22;26233;51.894;10.192;2024-01-07T02:18:41;2.90;52.40
40534;DHT22;26233;51.894;10.192;2024-01-07T02:21:10;2.80;52.40
40534;DHT22;26233;51.894;10.192;2024-01-07T02:23:39;2.80;52.40
40534;DHT22;26233;51.894;10.192;2024-01-07T02:26:07;2.80;52.40
40534;DHT22;26233;51.894;10.192;2024-01-07T02:28:35;2.80;52.40
40534;DHT22;26233;51.894;10.192;2024-01-07T02:31:02;2.80;52.30
40534;DHT22;26233;51.894;10.192;2024-01-07T02:33:29;2.70;52.30
40534;DHT22;26233;51.894;10.192;2024-01-07T02:35:56;2.80;52.60
40534;DHT22;26233;51.894;10.192;2024-01-07T02:38:23;2.70;52.30
40534;DHT22;26233;51.894;10.192;2024-01-07T02:40:50;2.70;52.20
40534;DHT22;26233;51.894;10.192;2024-01-07T02:43:19;2.70;52.30
40534;DHT22;26233;51.894;10.192;2024-01-07T02:45:46;2.60;52.00
40534;DHT22;26233;51.894;10.192;2024-01-07T02:48:13;2.60;52.20
40534;DHT22;26233;51.894;10.192;2024-01-07T02:50:40;2.60;52.20
40534;DHT22;26233;51.894;10.192;2024-01-07T02:53:07;2.60;52.00
40534;DHT22;26233;51.894;10.192;2024-01-07T02:55:36;2.60;52.00
40534;DHT22;26233;51.894;10.192;2024-01-07T02:58:03;2.60;52.00
40534;DHT22;26233;51.894;10.192;2024-01-07T03:00:33;2.50;52.00
40534;DHT22;26233;51.894;10.192;2024-01-07T03:03:00;2.50;52.10
40534;DHT22;26233;51.894;10.192;2024-01-07T03:05:27;2.50;52.10
40534;DHT22;26233;51.894;10.192;2024-01-07T03:07:58;2.50;52.10
40534;DHT22;26233;51.894;10.192;2024-01-07T03:10:25;2.50;52.10
40534;DHT22;26233;51.894;10.192;2024-01-07T03:12:52;2.50;52.10
40534;DHT22;26233;51.894;10.192;2024-01-07T03:15:19;2.50;51.90
40534;DHT22;26233;51.894;10.192;2024-01-07T03:17:47;2.50;51.90
40534;DHT22;26233;51.894;10.192;2024-01-07T03:20:14;2.50;51.90
40534;DHT22;26233;51.894;10.192;2024-01-07T03:22:41;2.40;51.70
40534;DHT22;26233;51.894;10.192;2024-01-07T03:25:09;2.40;51.60
40534;DHT22;26233;51.894;10.192;2024-01-07T03:27:36;2.40;51.70
40534;DHT22;26233;51.894;10.192;2024-01-07T03:30:03;2.30;51.70
40534;DHT22;26233;51.894;10.192;2024-01-07T03:32:31;2.30;51.70
40534;DHT22;26233;51.894;10.192;2024-01-07T03:35:00;2.30;51.60
40534;DHT22;26233;51.894;10.192;2024-01-07T03:37:27;2.20;51.60
40534;DHT22;26233;51.894;10.192;2024-01-07T03:39:54;2.20;51.40
40534;DHT22;26233;51.894;10.192;2024-01-07T03:42:21;2.10;51.20
40534;DHT22;26233;51.894;10.192;2024-01-07T03:44:48;2.10;51.50
40534;DHT22;26233;51.894;10.192;2024-01-07T03:47:15;2.10;51.30
40534;DHT22;26233;51.894;10.192;2024-01-07T03:49:42;2.10;51.60
40534;DHT22;26233;51.894;10.192;2024-01-07T03:52:10;2.10;51.70
40534;DHT22;26233;51.894;10.192;2024-01-07T03:54:37;2.10;51.60
40534;DHT22;26233;51.894;10.192;2024-01-07T03:57:04;2.10;51.70
40534;DHT22;26233;51.894;10.192;2024-01-07T03:59:31;2.00;51.70
40534;DHT22;26233;51.894;10.192;2024-01-07T04:01:58;2.10;51.80
40534;DHT22;26233;51.894;10.192;2024-01-07T04:04:25;2.10;51.90
40534;DHT22;26233;51.894;10.192;2024-01-07T04:06:52;2.10;51.90
40534;DHT22;26233;51.894;10.192;2024-01-07T04:09:21;2.10;51.80
40534;DHT22;26233;51.894;10.192;2024-01-07T04:11:48;2.10;51.70
40534;DHT22;26233;51.894;10.192;2024-01-07T04:14:15;2.10;51.70
40534;DHT22;26233;51.894;10.192;2024-01-07T04:16:42;2.10;51.60
40534;DHT22;26233;51.894;10.192;2024-01-07T04:19:09;2.10;51.60
40534;DHT22;26233;51.894;10.192;2024-01-07T04:21:36;2.00;51.50
40534;DHT22;26233;51.894;10.192;2024-01-07T04:24:04;2.00;51.30
40534;DHT22;26233;51.894;10.192;2024-01-07T04:26:33;2.00;51.40
40534;DHT22;26233;51.894;10.192;2024-01-07T04:29:00;2.00;51.70
40534;DHT22;26233;51.894;10.192;2024-01-07T04:31:27;2.00;51.30
40534;DHT22;26233;51.894;10.192;2024-01-07T04:33:54;2.00;51.50
40534;DHT22;26233;51.894;10.192;2024-01-07T04:36:21;1.90;51.40
40534;DHT22;26233;51.894;10.192;2024-01-07T04:38:48;2.00;51.30
40534;DHT22;26233;51.894;10.192;2024-01-07T04:41:15;1.90;51.20
40534;DHT22;26233;51.894;10.192;2024-01-07T04:43:44;1.90;51.40
40534;DHT22;26233;51.894;10.192;2024-01-07T04:46:11;1.90;51.50
40534;DHT22;26233;51.894;10.192;2024-01-07T04:48:38;1.90;51.40
40534;DHT22;26233;51.894;10.192;2024-01-07T04:51:06;1.90;51.40
40534;DHT22;26233;51.894;10.192;2024-01-07T04:53:33;1.90;51.50
40534;DHT22;26233;51.894;10.192;2024-01-07T04:56:01;1.90;51.40
40534;DHT22;26233;51.894;10.192;2024-01-07T04:58:28;1.90;51.40
40534;DHT22;26233;51.894;10.192;2024-01-07T05:00:56;1.80;51.30
40534;DHT22;26233;51.894;10.192;2024-01-07T05:03:23;1.80;51.20
40534;DHT22;26233;51.894;10.192;2024-01-07T05:05:50;1.80;51.40
40534;DHT22;26233;51.894;10.192;2024-01-07T05:08:17;1.80;51.50
40534;DHT22;26233;51.894;10.192;2024-01-07T05:10:44;1.90;51.40
40534;DHT22;26233;51.894;10.192;2024-01-07T05:13:11;1.80;51.30
40534;DHT22;26233;51.894;10.192;2024-01-07T05:15:39;1.80;51.20
40534;DHT22;26233;51.894;10.192;2024-01-07T05:18:08;1.80;51.10
40534;DHT22;26233;51.894;10.192;2024-01-07T05:20:35;1.80;51.20
40534;DHT22;26233;51.894;10.192;2024-01-07T05:23:03;1.70;51.10
40534;DHT22;26233;51.894;10.192;2024-01-07T05:25:30;1.70;51.20
40534;DHT22;26233;51.894;10.192;2024-01-07T05:27:57;1.70;51.30
40534;DHT22;26233;51.894;10.192;2024-01-07T05:30:24;1.70;51.30
40534;DHT22;26233;51.894;10.192;2024-01-07T05:32:51;1.80;51.30
40534;DHT22;26233;51.894;10.192;2024-01-07T05:35:20;1.70;51.20
40534;DHT22;26233;51.894;10.192;2024-01-07T05:37:47;1.70;51.10
40534;DHT22;26233;51.894;10.192;2024-01-07T05:40:14;1.70;51.00
40534;DHT22;26233;51.894;10.192;2024-01-07T05:42:41;1.70;51.00
40534;DHT22;26233;51.894;10.192;2024-01-07T05:45:08;1.70;51.20
40534;DHT22;26233;51.894;10.192;2024-01-07T05:47:35;1.70;51.30
40534;DHT22;26233;51.894;10.192;2024-01-07T05:50:03;1.70;51.20
40534;DHT22;26233;51.894;10.192;2024-01-07T05:52:32;1.70;51.20
40534;DHT22;26233;51.894;10.192;2024-01-07T05:54:59;1.70;51.20
40534;DHT22;26233;51.894;10.192;2024-01-07T05:57:26;1.70;51.20
40534;DHT22;26233;51.894;10.192;2024-01-07T05:59:53;1.70;51.10
40534;DHT22;26233;51.894;10.192;2024-01-07T06:02:20;1.70;50.90
40534;DHT22;26233;51.894;10.192;2024-01-07T06:04:48;1.70;50.90
40534;DHT22;26233;51.894;10.192;2024-01-07T06:07:15;1.70;51.00
40534;DHT22;26233;51.894;10.192;2024-01-07T06:09:43;1.60;50.90
40534;DHT22;26233;51.894;10.192;2024-01-07T06:12:11;1.60;50.90
40534;DHT22;26233;51.894;10.192;2024-01-07T06:14:38;1.60;50.90
40534;DHT22;26233;51.894;10.192;2024-01-07T06:17:05;1.60;50.90
40534;DHT22;26233;51.894;10.192;2024-01-07T06:19:32;1.50;50.20
40534;DHT22;26233;51.894;10.192;2024-01-07T06:21:59;1.50;50.70
40534;DHT22;26233;51.894;10.192;2024-01-07T06:24:26;1.60;51.00
40534;DHT22;26233;51.894;10.192;2024-01-07T06:26:55;1.50;50.60
40534;DHT22;26233;51.894;10.192;2024-01-07T06:29:22;1.50;50.50
40534;DHT22;26233;51.894;10.192;2024-01-07T06:31:49;1.50;50.50
40534;DHT22;26233;51.894;10.192;2024-01-07T06:34:16;1.60;50.90
40534;DHT22;26233;51.894;10.192;2024-01-07T06:36:43;1.50;50.70
40534;DHT22;26233;51.894;10.192;2024-01-07T06:39:10;1.50;50.70
40534;DHT22;26233;51.894;10.192;2024-01-07T06:41:37;1.50;50.50
40534;DHT22;26233;51.894;10.192;2024-01-07T06:44:06;1.50;50.50
40534;DHT22;26233;51.894;10.192;2024-01-07T06:46:34;1.50;50.00
40534;DHT22;26233;51.894;10.192;2024-01-07T06:49:01;1.50;50.20
40534;DHT22;26233;51.894;10.192;2024-01-07T06:51:28;1.50;50.20
40534;DHT22;26233;51.894;10.192;2024-01-07T06:53:55;1.40;50.10
40534;DHT22;26233;51.894;10.192;2024-01-07T06:56:22;1.40;50.10
40534;DHT22;26233;51.894;10.192;2024-01-07T06:58:50;1.30;50.00
40534;DHT22;26233;51.894;10.192;2024-01-07T07:01:19;1.30;50.00
40534;DHT22;26233;51.894;10.192;2024-01-07T07:03:48;1.30;50.10
40534;DHT22;26233;51.894;10.192;2024-01-07T07:06:15;1.30;49.80
40534;DHT22;26233;51.894;10.192;2024-01-07T07:08:42;1.30;49.70
40534;DHT22;26233;51.894;10.192;2024-01-07T07:11:09;1.20;49.70
40534;DHT22;26233;51.894;10.192;2024-01-07T07:13:36;1.20;49.80
40534;DHT22;26233;51.894;10.192;2024-01-07T07:16:06;1.10;49.90
40534;DHT22;26233;51.894;10.192;2024-01-07T07:18:35;1.10;49.70
40534;DHT22;26233;51.894;10.192;2024-01-07T07:21:02;1.10;49.70
40534;DHT22;26233;51.894;10.192;2024-01-07T07:23:29;1.00;49.80
40534;DHT22;26233;51.894;10.192;2024-01-07T07:25:56;1.00;49.80
40534;DHT22;26233;51.894;10.192;2024-01-07T07:28:23;1.00;49.20
40534;DHT22;26233;51.894;10.192;2024-01-07T07:30:50;0.90;49.30
40534;DHT22;26233;51.894;10.192;2024-01-07T07:33:18;0.90;49.40
40534;DHT22;26233;51.894;10.192;2024-01-07T07:35:46;0.90;49.50
40534;DHT22;26233;51.894;10.192;2024-01-07T07:38:13;0.80;49.40
40534;DHT22;26233;51.894;10.192;2024-01-07T07:40:41;0.80;49.40
40534;DHT22;26233;51.894;10.192;2024-01-07T07:43:08;0.80;49.50
40534;DHT22;26233;51.894;10.192;2024-01-07T07:45:36;0.80;49.20
40534;DHT22;26233;51.894;10.192;2024-01-07T07:48:03;0.80;49.20
40534;DHT22;26233;51.894;10.192;2024-01-07T07:50:31;0.70;49.40
40534;DHT22;26233;51.894;10.192;2024-01-07T07:52:59;0.70;49.50
40534;DHT22;26233;51.894;10.192;2024-01-07T07:55:26;0.70;49.50
40534;DHT22;26233;51.894;10.192;2024-01-07T07:57:54;0.80;49.80
40534;DHT22;26233;51.894;10.192;2024-01-07T08:00:21;0.80;49.90
40534;DHT22;26233;51.894;10.192;2024-01-07T08:02:48;0.80;49.90
40534;DHT22;26233;51.894;10.192;2024-01-07T08:05:15;0.80;49.70
40534;DHT22;26233;51.894;10.192;2024-01-07T08:07:42;0.80;49.80
40534;DHT22;26233;51.894;10.192;2024-01-07T08:10:11;0.80;49.50
40534;DHT22;26233;51.894;10.192;2024-01-07T08:12:38;0.80;49.60
40534;DHT22;26233;51.894;10.192;2024-01-07T08:15:06;0.80;49.40
40534;DHT22;26233;51.894;10.192;2024-01-07T08:17:34;0.80;49.50
40534;DHT22;26233;51.894;10.192;2024-01-07T08:20:01;0.80;49.40
40534;DHT22;26233;51.894;10.192;2024-01-07T08:22:29;0.80;49.50
40534;DHT22;26233;51.894;10.192;2024-01-07T08:24:56;0.80;49.60
40534;DHT22;26233;51.894;10.192;2024-01-07T08:27:24;0.80;49.60
40534;DHT22;26233;51.894;10.192;2024-01-07T08:29:52;0.80;50.20
40534;DHT22;26233;51.894;10.192;2024-01-07T08:32:19;0.80;49.50
40534;DHT22;26233;51.894;10.192;2024-01-07T08:34:48;0.80;49.60
40534;DHT22;26233;51.894;10.192;2024-01-07T08:37:15;0.90;49.60
40534;DHT22;26233;51.894;10.192;2024-01-07T08:39:42;0.90;49.70
40534;DHT22;26233;51.894;10.192;2024-01-07T08:42:08;0.90;49.80
40534;DHT22;26233;51.894;10.192;2024-01-07T08:44:36;1.00;49.80
40534;DHT22;26233;51.894;10.192;2024-01-07T08:47:05;1.10;49.90
40534;DHT22;26233;51.894;10.192;2024-01-07T08:49:32;1.20;50.10
40534;DHT22;26233;51.894;10.192;2024-01-07T08:52:00;1.10;49.80
40534;DHT22;26233;51.894;10.192;2024-01-07T08:54:27;1.30;49.90
40534;DHT22;26233;51.894;10.192;2024-01-07T08:56:54;1.30;49.80
40534;DHT22;26233;51.894;10.192;2024-01-07T08:59:21;1.40;49.40
40534;DHT22;26233;51.894;10.192;2024-01-07T09:01:49;1.40;49.60
40534;DHT22;26233;51.894;10.192;2024-01-07T09:04:16;1.40;49.40
40534;DHT22;26233;51.894;10.192;2024-01-07T09:06:44;1.40;49.00
40534;DHT22;26233;51.894;10.192;2024-01-07T09:09:11;1.40;49.10
40534;DHT22;26233;51.894;10.192;2024-01-07T09:11:38;1.30;49.00
40534;DHT22;26233;51.894;10.192;2024-01-07T09:14:05;1.30;49.20
40534;DHT22;26233;51.894;10.192;2024-01-07T09:16:33;1.30;49.40
40534;DHT22;26233;51.894;10.192;2024-01-07T09:19:02;1.40;49.60
40534;DHT22;26233;51.894;10.192;2024-01-07T09:21:29;1.40;49.80
40534;DHT22;26233;51.894;10.192;2024-01-07T09:23:56;1.50;49.80
40534;DHT22;26233;51.894;10.192;2024-01-07T09:26:23;1.50;49.80
40534;DHT22;26233;51.894;10.192;2024-01-07T09:28:50;1.60;49.90
40534;DHT22;26233;51.894;10.192;2024-01-07T09:31:17;1.60;49.70
40534;DHT22;26233;51.894;10.192;2024-01-07T09:33:44;1.70;49.80
40534;DHT22;26233;51.894;10.192;2024-01-07T09:36:13;1.70;49.80
40534;DHT22;26233;51.894;10.192;2024-01-07T09:38:40;1.70;49.50
40534;DHT22;26233;51.894;10.192;2024-01-07T09:41:07;1.70;49.60
40534;DHT22;26233;51.894;10.192;2024-01-07T09:43:34;1.80;49.30
40534;DHT22;26233;51.894;10.192;2024-01-07T09:46:02;1.70;49.20
40534;DHT22;26233;51.894;10.192;2024-01-07T09:48:29;1.70;48.70
40534;DHT22;26233;51.894;10.192;2024-01-07T09:50:57;1.70;48.70
40534;DHT22;26233;51.894;10.192;2024-01-07T09:53:30;1.60;49.00
40534;DHT22;26233;51.894;10.192;2024-01-07T09:56:05;1.60;49.50
40534;DHT22;26233;51.894;10.192;2024-01-07T09:58:35;1.60;48.70
40534;DHT22;26233;51.894;10.192;2024-01-07T10:01:02;1.60;48.60
40534;DHT22;26233;51.894;10.192;2024-01-07T10:03:30;1.50;48.70
40534;DHT22;26233;51.894;10.192;2024-01-07T10:05:57;1.50;48.50
40534;DHT22;26233;51.894;10.192;2024-01-07T10:08:26;1.50;48.90
40534;DHT22;26233;51.894;10.192;2024-01-07T10:10:53;1.50;49.00
40534;DHT22;26233;51.894;10.192;2024-01-07T10:13:21;1.50;48.80
40534;DHT22;26233;51.894;10.192;2024-01-07T10:15:49;1.50;48.60
40534;DHT22;26233;51.894;10.192;2024-01-07T10:18:16;1.50;48.70
40534;DHT22;26233;51.894;10.192;2024-01-07T10:20:44;1.50;48.50
40534;DHT22;26233;51.894;10.192;2024-01-07T10:23:11;1.50;49.40
40534;DHT22;26233;51.894;10.192;2024-01-07T10:25:40;1.50;48.90
40534;DHT22;26233;51.894;10.192;2024-01-07T10:28:07;1.50;49.00
40534;DHT22;26233;51.894;10.192;2024-01-07T10:30:38;1.50;48.80
40534;DHT22;26233;51.894;10.192;2024-01-07T10:33:07;1.40;48.70
40534;DHT22;26233;51.894;10.192;2024-01-07T10:35:36;1.40;48.70
40534;DHT22;26233;51.894;10.192;2024-01-07T10:38:04;1.50;49.10
40534;DHT22;26233;51.894;10.192;2024-01-07T10:40:32;1.40;49.00
40534;DHT22;26233;51.894;10.192;2024-01-07T10:43:02;1.50;49.10
40534;DHT22;26233;51.894;10.192;2024-01-07T10:45:29;1.50;49.10
40534;DHT22;26233;51.894;10.192;2024-01-07T10:47:59;1.40;49.20
40534;DHT22;26233;51.894;10.192;2024-01-07T10:50:33;1.50;49.10
40534;DHT22;26233;51.894;10.192;2024-01-07T10:53:04;1.50;49.00
40534;DHT22;26233;51.894;10.192;2024-01-07T10:55:34;1.50;48.80
40534;DHT22;26233;51.894;10.192;2024-01-07T10:58:04;1.50;49.00
40534;DHT22;26233;51.894;10.192;2024-01-07T11:00:32;1.50;49.10
40534;DHT22;26233;51.894;10.192;2024-01-07T11:03:04;1.50;49.10
40534;DHT22;26233;51.894;10.192;2024-01-07T11:05:40;1.50;49.00
40534;DHT22;26233;51.894;10.192;2024-01-07T11:08:15;1.40;49.00
40534;DHT22;26233;51.894;10.192;2024-01-07T11:10:50;1.40;49.00
40534;DHT22;26233;51.894;10.192;2024-01-07T11:13:34;1.50;49.20
40534;DHT22;26233;51.894;10.192;2024-01-07T11:16:04;1.50;49.00
40534;DHT22;26233;51.894;10.192;2024-01-07T11:18:38;1.50;49.30
40534;DHT22;26233;51.894;10.192;2024-01-07T11:21:06;1.50;49.30
40534;DHT22;26233;51.894;10.192;2024-01-07T11:23:34;1.50;49.30
40534;DHT22;26233;51.894;10.192;2024-01-07T11:26:04;1.60;49.50
40534;DHT22;26233;51.894;10.192;2024-01-07T11:28:46;1.50;49.20
40534;DHT22;26233;51.894;10.192;2024-01-07T11:31:15;1.50;48.90
40534;DHT22;26233;51.894;10.192;2024-01-07T11:33:43;1.60;49.30
40534;DHT22;26233;51.894;10.192;2024-01-07T11:36:12;1.60;49.40
40534;DHT22;26233;51.894;10.192;2024-01-07T11:38:42;1.60;49.30
40534;DHT22;26233;51.894;10.192;2024-01-07T11:41:11;1.60;49.10
40534;DHT22;26233;51.894;10.192;2024-01-07T11:43:53;1.60;49.20
40534;DHT22;26233;51.894;10.192;2024-01-07T11:46:21;1.70;49.20
40534;DHT22;26233;51.894;10.192;2024-01-07T11:48:49;1.70;49.40
40534;DHT22;26233;51.894;10.192;2024-01-07T11:51:17;1.70;49.50
40534;DHT22;26233;51.894;10.192;2024-01-07T11:53:46;1.70;49.40
40534;DHT22;26233;51.894;10.192;2024-01-07T11:56:13;1.70;49.20
40534;DHT22;26233;51.894;10.192;2024-01-07T11:58:40;1.70;49.00
40534;DHT22;26233;51.894;10.192;2024-01-07T12:01:09;1.60;49.00
40534;DHT22;26233;51.894;10.192;2024-01-07T12:03:36;1.60;49.10
40534;DHT22;26233;51.894;10.192;2024-01-07T12:06:04;1.50;49.10
40534;DHT22;26233;51.894;10.192;2024-01-07T12:08:31;1.50;49.20
40534;DHT22;26233;51.894;10.192;2024-01-07T12:10:59;1.60;49.30
40534;DHT22;26233;51.894;10.192;2024-01-07T12:13:26;1.60;49.30
40534;DHT22;26233;51.894;10.192;2024-01-07T12:15:54;1.60;49.60
40534;DHT22;26233;51.894;10.192;2024-01-07T12:18:22;1.60;49.50
40534;DHT22;26233;51.894;10.192;2024-01-07T12:20:55;1.60;49.40
40534;DHT22;26233;51.894;10.192;2024-01-07T12:23:23;1.60;49.30
40534;DHT22;26233;51.894;10.192;2024-01-07T12:25:51;1.60;49.40
40534;DHT22;26233;51.894;10.192;2024-01-07T12:28:18;1.60;49.40
40534;DHT22;26233;51.894;10.192;2024-01-07T12:30:47;1.60;49.40
40534;DHT22;26233;51.894;10.192;2024-01-07T12:33:17;1.60;49.40
40534;DHT22;26233;51.894;10.192;2024-01-07T12:35:46;1.60;49.40
40534;DHT22;26233;51.894;10.192;2024-01-07T12:38:13;1.50;49.30
40534;DHT22;26233;51.894;10.192;2024-01-07T12:40:40;1.50;49.20
40534;DHT22;26233;51.894;10.192;2024-01-07T12:43:07;1.50;49.10
40534;DHT22;26233;51.894;10.192;2024-01-07T12:45:34;1.50;49.30
40534;DHT22;26233;51.894;10.192;2024-01-07T12:48:02;1.50;49.50
40534;DHT22;26233;51.894;10.192;2024-01-07T12:50:29;1.50;49.60
40534;DHT22;26233;51.894;10.192;2024-01-07T12:52:58;1.60;49.70
40534;DHT22;26233;51.894;10.192;2024-01-07T12:55:26;1.60;49.60
40534;DHT22;26233;51.894;10.192;2024-01-07T12:57:54;1.60;49.50
40534;DHT22;26233;51.894;10.192;2024-01-07T13:00:22;1.60;49.60
40534;DHT22;26233;51.894;10.192;2024-01-07T13:02:49;1.60;49.50
40534;DHT22;26233;51.894;10.192;2024-01-07T13:05:16;1.60;49.50
40534;DHT22;26233;51.894;10.192;2024-01-07T13:07:44;1.60;49.50
40534;DHT22;26233;51.894;10.192;2024-01-07T13:10:14;1.70;49.60
40534;DHT22;26233;51.894;10.192;2024-01-07T13:12:41;1.70;49.60
40534;DHT22;26233;51.894;10.192;2024-01-07T13:15:09;1.70;50.20
40534;DHT22;26233;51.894;10.192;2024-01-07T13:17:38;1.60;49.50
40534;DHT22;26233;51.894;10.192;2024-01-07T13:20:06;1.60;49.50
40534;DHT22;26233;51.894;10.192;2024-01-07T13:22:37;1.60;49.50
40534;DHT22;26233;51.894;10.192;2024-01-07T13:25:04;1.60;49.60
40534;DHT22;26233;51.894;10.192;2024-01-07T13:27:33;1.70;49.70
40534;DHT22;26233;51.894;10.192;2024-01-07T13:30:01;1.70;49.70
40534;DHT22;26233;51.894;10.192;2024-01-07T13:32:28;1.70;49.70
40534;DHT22;26233;51.894;10.192;2024-01-07T13:34:56;1.70;49.60
40534;DHT22;26233;51.894;10.192;2024-01-07T13:37:23;1.70;49.60
40534;DHT22;26233;51.894;10.192;2024-01-07T13:39:50;1.70;49.60
40534;DHT22;26233;51.894;10.192;2024-01-07T13:42:17;1.70;50.30
40534;DHT22;26233;51.894;10.192;2024-01-07T13:44:45;1.70;49.70
40534;DHT22;26233;51.894;10.192;2024-01-07T13:47:12;1.70;49.60
40534;DHT22;26233;51.894;10.192;2024-01-07T13:49:40;1.70;49.60
40534;DHT22;26233;51.894;10.192;2024-01-07T13:52:07;1.70;49.60
40534;DHT22;26233;51.894;10.192;2024-01-07T13:54:35;1.60;49.60
40534;DHT22;26233;51.894;10.192;2024-01-07T13:57:03;1.60;49.60
40534;DHT22;26233;51.894;10.192;2024-01-07T13:59:30;1.60;49.60
40534;DHT22;26233;51.894;10.192;2024-01-07T14:01:58;1.60;49.60
40534;DHT22;26233;51.894;10.192;2024-01-07T14:04:26;1.60;49.60
40534;DHT22;26233;51.894;10.192;2024-01-07T14:06:54;1.60;49.50
40534;DHT22;26233;51.894;10.192;2024-01-07T14:09:21;1.60;49.60
40534;DHT22;26233;51.894;10.192;2024-01-07T14:11:48;1.60;49.60
40534;DHT22;26233;51.894;10.192;2024-01-07T14:14:15;1.70;49.70
40534;DHT22;26233;51.894;10.192;2024-01-07T14:16:44;1.60;49.60
40534;DHT22;26233;51.894;10.192;2024-01-07T14:19:13;1.60;49.50
40534;DHT22;26233;51.894;10.192;2024-01-07T14:21:41;1.60;49.60
40534;DHT22;26233;51.894;10.192;2024-01-07T14:24:08;1.60;49.60
40534;DHT22;26233;51.894;10.192;2024-01-07T14:26:35;1.60;49.70
40534;DHT22;26233;51.894;10.192;2024-01-07T14:29:02;1.60;49.60
40534;DHT22;26233;51.894;10.192;2024-01-07T14:31:30;1.60;49.70
40534;DHT22;26233;51.894;10.192;2024-01-07T14:33:57;1.60;49.70
40534;DHT22;26233;51.894;10.192;2024-01-07T14:36:25;1.70;49.80
40534;DHT22;26233;51.894;10.192;2024-01-07T14:38:52;1.70;49.80
40534;DHT22;26233;51.894;10.192;2024-01-07T14:41:20;1.70;49.90
40534;DHT22;26233;51.894;10.192;2024-01-07T14:43:47;1.70;49.90
40534;DHT22;26233;51.894;10.192;2024-01-07T14:46:14;1.70;49.90
40534;DHT22;26233;51.894;10.192;2024-01-07T14:48:41;1.70;49.90
40534;DHT22;26233;51.894;10.192;2024-01-07T14:51:08;1.80;50.00
40534;DHT22;26233;51.894;10.192;2024-01-07T14:53:37;1.80;49.90
40534;DHT22;26233;51.894;10.192;2024-01-07T14:56:04;1.80;50.00
40534;DHT22;26233;51.894;10.192;2024-01-07T14:58:31;1.80;50.00
40534;DHT22;26233;51.894;10.192;2024-01-07T15:00:59;1.80;50.00
40534;DHT22;26233;51.894;10.192;2024-01-07T15:03:27;1.80;50.00
40534;DHT22;26233;51.894;10.192;2024-01-07T15:05:55;1.80;50.00
40534;DHT22;26233;51.894;10.192;2024-01-07T15:08:23;1.80;50.40
40534;DHT22;26233;51.894;10.192;2024-01-07T15:10:52;1.80;50.10
40534;DHT22;26233;51.894;10.192;2024-01-07T15:13:19;1.90;50.10
40534;DHT22;26233;51.894;10.192;2024-01-07T15:15:47;1.80;49.90
40534;DHT22;26233;51.894;10.192;2024-01-07T15:18:15;1.70;49.80
40534;DHT22;26233;51.894;10.192;2024-01-07T15:20:42;1.70;49.90
40534;DHT22;26233;51.894;10.192;2024-01-07T15:23:09;1.70;50.00
40534;DHT22;26233;51.894;10.192;2024-01-07T15:25:36;1.70;49.90
40534;DHT22;26233;51.894;10.192;2024-01-07T15:28:04;1.70;50.00
40534;DHT22;26233;51.894;10.192;2024-01-07T15:30:31;1.70;50.10
40534;DHT22;26233;51.894;10.192;2024-01-07T15:32:58;1.70;50.20